Time;durP1;ratioP1;P1;durP2;ratioP2;P2;SDS_P1;SDS_P2;PMS_P1;PMS_P2;Temp;Humidity;BMP_temperature;BMP_pressure;BME280_temperature;BME280_humidity;BME280_pressure;Samples;Min_cycle;Max_cycle;Signal;HPM_P1;HPM_P2
2022/07/26 00:02:23;;;;;;;4.25;1.70;;;;;;;;;;5027280;28;20045;-76
2022/07/26 00:04:48;;;;;;;4.68;1.70;;;;;;;;;;5027363;28;20115;-76
2022/07/26 00:07:13;;;;;;;4.95;1.70;;;;;;;;;;5026899;28;20036;-77
2022/07/26 00:09:39;;;;;;;5.70;1.75;;;;;;;;;;5027298;28;20121;-76
2022/07/26 00:12:05;;;;;;;4.95;1.90;;;;;;;;;;5027228;28;20029;-76
2022/07/26 00:14:30;;;;;;;5.05;2.00;;;;;;;;;;5027088;28;20385;-76
2022/07/26 00:16:56;;;;;;;4.32;2.20;;;;;;;;;;5026886;28;20069;-77
2022/07/26 00:19:21;;;;;;;4.07;2.00;;;;;;;;;;5026993;28;20052;-77
2022/07/26 00:21:47;;;;;;;5.82;2.30;;;;;;;;;;5027039;28;20525;-78
2022/07/26 00:24:12;;;;;;;5.35;2.15;;;;;;;;;;5027251;28;20026;-76
2022/07/26 00:26:38;;;;;;;4.60;2.03;;;;;;;;;;5026717;28;20477;-76
2022/07/26 00:29:04;;;;;;;5.00;1.80;;;;;;;;;;5027026;28;20120;-77
2022/07/26 00:31:30;;;;;;;5.32;1.98;;;;;;;;;;5026963;28;20253;-75
2022/07/26 00:33:56;;;;;;;5.05;2.20;;;;;;;;;;5026857;28;20029;-76
2022/07/26 00:36:22;;;;;;;5.35;2.08;;;;;;;;;;5027870;28;20494;-76
2022/07/26 00:38:47;;;;;;;5.65;2.00;;;;;;;;;;5030512;28;20477;-76
2022/07/26 00:41:13;;;;;;;5.47;2.10;;;;;;;;;;5030511;28;20048;-76
2022/07/26 00:43:53;;;;;;;3.95;1.80;;;;;;;;;;5029220;28;20033;-75
2022/07/26 00:46:18;;;;;;;4.28;1.80;;;;;;;;;;5030180;28;20041;-77
2022/07/26 00:48:43;;;;;;;5.40;1.80;;;;;;;;;;5030160;28;20021;-77
2022/07/26 00:51:09;;;;;;;5.78;2.00;;;;;;;;;;5030125;28;20050;-76
2022/07/26 00:53:34;;;;;;;3.60;1.60;;;;;;;;;;5030317;28;20025;-76
2022/07/26 00:56:00;;;;;;;5.05;1.98;;;;;;;;;;5030218;28;20112;-77
2022/07/26 00:58:25;;;;;;;7.28;2.03;;;;;;;;;;5030210;28;20112;-76
2022/07/26 01:00:51;;;;;;;5.75;2.10;;;;;;;;;;5029981;28;20045;-76
2022/07/26 01:03:16;;;;;;;6.93;2.10;;;;;;;;;;5030006;28;20060;-75
2022/07/26 01:05:42;;;;;;;6.85;2.28;;;;;;;;;;5029816;28;20056;-76
2022/07/26 01:08:07;;;;;;;3.80;1.90;;;;;;;;;;5029826;28;20064;-76
2022/07/26 01:10:33;;;;;;;6.50;1.90;;;;;;;;;;5029912;28;20473;-76
2022/07/26 01:12:59;;;;;;;4.88;1.90;;;;;;;;;;5029969;28;20108;-75
2022/07/26 01:15:24;;;;;;;4.32;1.80;;;;;;;;;;5029754;28;20032;-75
2022/07/26 01:17:49;;;;;;;7.28;1.90;;;;;;;;;;5029783;28;20045;-75
2022/07/26 01:20:15;;;;;;;4.20;1.80;;;;;;;;;;5028469;28;20112;-76
2022/07/26 01:22:40;;;;;;;4.95;1.88;;;;;;;;;;5029522;28;20022;-75
2022/07/26 01:25:07;;;;;;;5.22;2.08;;;;;;;;;;5029512;28;20022;-76
2022/07/26 01:27:38;;;;;;;5.65;2.00;;;;;;;;;;5029502;28;20079;-75
2022/07/26 01:30:06;;;;;;;7.03;2.20;;;;;;;;;;5029834;28;20025;-76
2022/07/26 01:32:31;;;;;;;5.07;2.25;;;;;;;;;;5029776;28;20101;-76
2022/07/26 01:34:56;;;;;;;5.03;1.98;;;;;;;;;;5029591;28;20511;-75
2022/07/26 01:37:22;;;;;;;4.80;2.00;;;;;;;;;;5029273;28;20022;-75
2022/07/26 01:39:47;;;;;;;4.95;2.20;;;;;;;;;;5029436;28;20024;-76
2022/07/26 01:42:13;;;;;;;6.05;2.20;;;;;;;;;;5028028;28;20022;-75
2022/07/26 01:44:39;;;;;;;5.35;1.88;;;;;;;;;;5029330;28;20502;-76
2022/07/26 01:47:04;;;;;;;4.95;1.90;;;;;;;;;;5029003;28;20036;-76
2022/07/26 01:49:30;;;;;;;5.28;2.03;;;;;;;;;;5028686;28;20037;-76
2022/07/26 01:51:55;;;;;;;3.88;2.10;;;;;;;;;;5029392;28;20078;-76
2022/07/26 01:54:21;;;;;;;4.18;1.90;;;;;;;;;;5029510;28;20366;-76
2022/07/26 01:56:46;;;;;;;4.13;1.92;;;;;;;;;;5029145;28;20032;-76
2022/07/26 01:59:11;;;;;;;4.88;2.00;;;;;;;;;;5029157;28;20010;-75
2022/07/26 02:01:37;;;;;;;5.35;1.83;;;;;;;;;;5028966;28;20177;-76
2022/07/26 02:04:02;;;;;;;5.57;2.28;;;;;;;;;;5029315;28;20025;-76
2022/07/26 02:06:27;;;;;;;7.68;2.08;;;;;;;;;;5028835;28;20048;-76
2022/07/26 02:08:53;;;;;;;3.97;1.77;;;;;;;;;;5029139;28;20021;-75
2022/07/26 02:11:18;;;;;;;6.28;1.92;;;;;;;;;;5029150;28;20036;-76
2022/07/26 02:13:44;;;;;;;7.63;2.20;;;;;;;;;;5028832;28;20025;-76
2022/07/26 02:16:13;;;;;;;5.82;1.90;;;;;;;;;;5028686;28;20068;-77
2022/07/26 02:18:39;;;;;;;5.07;1.92;;;;;;;;;;5029011;28;20097;-78
2022/07/26 02:21:06;;;;;;;5.60;1.90;;;;;;;;;;5028804;28;20039;-78
2022/07/26 02:23:32;;;;;;;5.60;2.10;;;;;;;;;;5029122;28;20066;-78
2022/07/26 02:25:58;;;;;;;5.78;2.10;;;;;;;;;;5027349;28;20501;-78
2022/07/26 02:28:23;;;;;;;5.07;2.03;;;;;;;;;;5028785;28;20103;-78
2022/07/26 02:30:49;;;;;;;6.63;1.95;;;;;;;;;;5028791;28;20030;-79
2022/07/26 02:33:16;;;;;;;6.93;2.05;;;;;;;;;;5027692;28;20018;-79
2022/07/26 02:35:42;;;;;;;6.93;1.98;;;;;;;;;;5028628;28;20040;-79
2022/07/26 02:38:11;;;;;;;4.45;1.70;;;;;;;;;;5028403;28;20037;-76
2022/07/26 02:40:37;;;;;;;4.40;1.85;;;;;;;;;;5028710;28;20470;-77
2022/07/26 02:43:05;;;;;;;4.82;1.90;;;;;;;;;;5028537;28;20519;-79
2022/07/26 02:45:30;;;;;;;7.38;2.10;;;;;;;;;;5028485;28;20033;-78
2022/07/26 02:47:56;;;;;;;5.32;1.98;;;;;;;;;;5028121;28;20113;-78
2022/07/26 02:50:24;;;;;;;7.63;2.38;;;;;;;;;;5028395;28;20033;-76
2022/07/26 02:52:51;;;;;;;6.00;2.00;;;;;;;;;;5027042;28;20477;-78
2022/07/26 02:55:19;;;;;;;8.73;2.42;;;;;;;;;;5028341;28;20033;-77
2022/07/26 02:57:45;;;;;;;6.72;1.98;;;;;;;;;;5027966;28;20102;-78
2022/07/26 03:00:12;;;;;;;5.72;1.92;;;;;;;;;;5028401;28;20025;-77
2022/07/26 03:02:38;;;;;;;4.78;2.17;;;;;;;;;;5028111;28;20057;-78
2022/07/26 03:05:05;;;;;;;7.28;1.98;;;;;;;;;;5028189;28;20037;-78
2022/07/26 03:07:30;;;;;;;5.82;2.10;;;;;;;;;;5026453;28;20440;-78
2022/07/26 03:09:55;;;;;;;6.18;2.10;;;;;;;;;;5028004;28;20485;-77
2022/07/26 03:12:21;;;;;;;4.63;1.90;;;;;;;;;;5028451;28;20374;-78
2022/07/26 03:14:46;;;;;;;5.65;1.92;;;;;;;;;;5028203;28;20025;-77
2022/07/26 03:17:12;;;;;;;8.18;2.10;;;;;;;;;;5027874;28;20029;-78
2022/07/26 03:19:37;;;;;;;11.50;2.50;;;;;;;;;;5028078;28;20116;-79
2022/07/26 03:22:03;;;;;;;7.88;2.10;;;;;;;;;;5027880;28;20385;-78
2022/07/26 03:24:28;;;;;;;6.47;2.30;;;;;;;;;;5026704;28;20057;-78
2022/07/26 03:26:53;;;;;;;4.82;1.92;;;;;;;;;;5027650;28;20038;-78
2022/07/26 03:29:19;;;;;;;9.93;2.10;;;;;;;;;;5027605;28;20029;-79
2022/07/26 03:31:44;;;;;;;7.20;2.10;;;;;;;;;;5027734;28;20036;-76
2022/07/26 03:34:10;;;;;;;6.68;2.00;;;;;;;;;;5028044;28;20033;-76
2022/07/26 03:36:35;;;;;;;6.63;1.90;;;;;;;;;;5027860;28;20034;-78
2022/07/26 03:39:01;;;;;;;6.45;1.90;;;;;;;;;;5027731;28;20026;-77
2022/07/26 03:41:27;;;;;;;5.20;1.75;;;;;;;;;;5027671;28;20068;-78
2022/07/26 03:43:52;;;;;;;6.88;1.92;;;;;;;;;;5027574;28;20109;-77
2022/07/26 03:46:18;;;;;;;9.23;2.45;;;;;;;;;;5027407;28;20471;-76
2022/07/26 03:48:43;;;;;;;6.70;2.20;;;;;;;;;;5027095;28;20074;-78
2022/07/26 03:51:08;;;;;;;5.78;2.17;;;;;;;;;;5027455;28;20026;-76
2022/07/26 03:53:34;;;;;;;9.07;2.03;;;;;;;;;;5027718;28;20029;-76
2022/07/26 03:58:43;;;;;;;9.27;2.22;;;;;;;;;;5027209;28;20036;-76
2022/07/26 04:01:09;;;;;;;7.25;2.10;;;;;;;;;;5027131;28;20033;-76
2022/07/26 04:03:35;;;;;;;7.65;2.20;;;;;;;;;;5027331;28;20069;-78
2022/07/26 04:06:01;;;;;;;7.32;2.20;;;;;;;;;;5027130;28;20096;-78
2022/07/26 04:08:26;;;;;;;7.65;2.10;;;;;;;;;;5027064;28;20026;-78
2022/07/26 04:10:52;;;;;;;7.43;2.00;;;;;;;;;;5027015;28;20028;-79
2022/07/26 04:13:18;;;;;;;6.55;2.00;;;;;;;;;;5027309;28;20028;-76
2022/07/26 04:15:44;;;;;;;6.05;2.00;;;;;;;;;;5027275;28;20601;-76
2022/07/26 04:18:09;;;;;;;6.88;2.00;;;;;;;;;;5026873;28;20029;-76
2022/07/26 04:20:35;;;;;;;6.85;2.08;;;;;;;;;;5027038;28;20021;-76
2022/07/26 04:23:00;;;;;;;9.40;2.17;;;;;;;;;;5026951;28;20026;-77
2022/07/26 04:25:26;;;;;;;7.65;1.90;;;;;;;;;;5027027;28;20037;-76
2022/07/26 04:27:51;;;;;;;10.20;2.17;;;;;;;;;;5026884;28;20033;-75
2022/07/26 04:30:17;;;;;;;7.45;2.05;;;;;;;;;;5027211;28;20036;-76
2022/07/26 04:32:43;;;;;;;6.45;1.95;;;;;;;;;;5026822;28;20025;-77
2022/07/26 04:35:09;;;;;;;7.95;2.30;;;;;;;;;;5027065;28;20037;-76
2022/07/26 04:37:42;;;;;;;8.10;2.30;;;;;;;;;;5026468;28;20040;-77
2022/07/26 04:40:09;;;;;;;10.68;2.40;;;;;;;;;;5027118;28;20025;-76
2022/07/26 04:42:35;;;;;;;8.80;2.40;;;;;;;;;;5026963;28;20045;-77
2022/07/26 04:45:02;;;;;;;4.68;2.05;;;;;;;;;;5026876;28;20038;-75
2022/07/26 04:47:28;;;;;;;7.22;2.25;;;;;;;;;;5026701;28;20090;-75
2022/07/26 04:49:53;;;;;;;5.95;2.08;;;;;;;;;;5025374;28;20473;-76
2022/07/26 04:52:18;;;;;;;6.78;2.40;;;;;;;;;;5026470;28;20064;-76
2022/07/26 04:54:44;;;;;;;8.52;2.20;;;;;;;;;;5026581;28;20121;-76
2022/07/26 04:57:09;;;;;;;7.05;2.10;;;;;;;;;;5026521;28;20030;-78
2022/07/26 04:59:35;;;;;;;9.73;2.45;;;;;;;;;;5026644;28;20469;-76
2022/07/26 05:02:00;;;;;;;11.80;2.40;;;;;;;;;;5026639;28;20462;-77
2022/07/26 05:04:26;;;;;;;7.18;2.20;;;;;;;;;;5026569;28;20036;-76
2022/07/26 05:06:51;;;;;;;5.63;2.05;;;;;;;;;;5026563;28;20022;-78
2022/07/26 05:09:16;;;;;;;7.38;2.17;;;;;;;;;;5026226;28;20060;-77
2022/07/26 05:11:42;;;;;;;6.50;1.90;;;;;;;;;;5026490;28;20104;-76
2022/07/26 05:14:07;;;;;;;9.18;2.25;;;;;;;;;;5026449;28;20030;-76
2022/07/26 05:16:33;;;;;;;6.57;1.90;;;;;;;;;;5025464;28;20045;-76
2022/07/26 05:18:58;;;;;;;5.03;1.90;;;;;;;;;;5026342;28;20499;-75
2022/07/26 05:21:24;;;;;;;7.45;2.38;;;;;;;;;;5025097;28;20038;-76
2022/07/26 05:23:49;;;;;;;5.38;1.88;;;;;;;;;;5027929;28;20056;-76
2022/07/26 05:26:14;;;;;;;10.02;2.05;;;;;;;;;;5029637;28;20522;-75
2022/07/26 05:28:40;;;;;;;7.40;1.90;;;;;;;;;;5028174;28;20037;-76
2022/07/26 05:31:06;;;;;;;7.35;2.13;;;;;;;;;;5029616;28;20597;-75
2022/07/26 05:33:31;;;;;;;7.95;1.83;;;;;;;;;;5029445;28;20025;-75
2022/07/26 05:35:56;;;;;;;8.43;1.80;;;;;;;;;;5029396;28;20544;-75
2022/07/26 05:38:24;;;;;;;6.25;1.75;;;;;;;;;;5029422;28;20017;-75
2022/07/26 05:40:50;;;;;;;7.32;1.80;;;;;;;;;;5029625;28;20018;-78
2022/07/26 05:43:15;;;;;;;9.80;2.10;;;;;;;;;;5029445;28;20025;-76
2022/07/26 05:45:40;;;;;;;9.18;2.10;;;;;;;;;;5029363;28;20028;-76
2022/07/26 05:48:06;;;;;;;8.23;2.10;;;;;;;;;;5028981;28;20117;-76
2022/07/26 05:50:31;;;;;;;10.40;1.95;;;;;;;;;;5029124;28;20615;-77
2022/07/26 05:52:57;;;;;;;12.32;1.95;;;;;;;;;;5029230;28;20041;-77
2022/07/26 05:55:22;;;;;;;13.32;4.97;;;;;;;;;;5029351;28;20037;-77
2022/07/26 05:57:48;;;;;;;10.63;2.50;;;;;;;;;;5029055;28;20045;-75
2022/07/26 06:00:14;;;;;;;10.60;2.20;;;;;;;;;;5029018;28;20070;-77
2022/07/26 06:02:40;;;;;;;9.75;1.90;;;;;;;;;;5028846;28;20102;-75
2022/07/26 06:05:06;;;;;;;6.75;1.90;;;;;;;;;;5029051;28;20029;-76
2022/07/26 06:07:31;;;;;;;7.80;1.83;;;;;;;;;;5028807;28;20030;-76
2022/07/26 06:09:57;;;;;;;10.60;2.10;;;;;;;;;;5029080;28;20031;-76
2022/07/26 06:12:23;;;;;;;6.78;1.73;;;;;;;;;;5027899;28;20056;-77
2022/07/26 06:14:48;;;;;;;11.27;2.20;;;;;;;;;;5028928;28;20034;-77
2022/07/26 06:17:13;;;;;;;9.80;1.85;;;;;;;;;;5028924;28;20033;-78
2022/07/26 06:19:39;;;;;;;7.75;1.92;;;;;;;;;;5028579;28;20061;-78
2022/07/26 06:22:04;;;;;;;9.15;2.10;;;;;;;;;;5028495;28;20052;-76
2022/07/26 06:24:30;;;;;;;12.77;1.90;;;;;;;;;;5028718;28;20025;-76
2022/07/26 06:26:56;;;;;;;7.22;1.83;;;;;;;;;;5028678;28;20036;-79
2022/07/26 06:29:22;;;;;;;9.55;2.10;;;;;;;;;;5028696;28;20022;-79
2022/07/26 06:31:48;;;;;;;11.70;2.05;;;;;;;;;;5029165;28;20484;-79
2022/07/26 06:34:14;;;;;;;9.63;2.30;;;;;;;;;;5027179;28;20030;-80
2022/07/26 06:36:39;;;;;;;11.23;1.80;;;;;;;;;;5028467;28;20073;-80
2022/07/26 06:39:05;;;;;;;9.15;1.85;;;;;;;;;;5028288;28;20082;-79
2022/07/26 06:41:30;;;;;;;8.70;1.60;;;;;;;;;;5028439;28;20506;-80
2022/07/26 06:43:56;;;;;;;10.90;1.92;;;;;;;;;;5028466;28;20026;-79
2022/07/26 06:46:21;;;;;;;9.43;1.92;;;;;;;;;;5028696;28;20473;-79
2022/07/26 06:48:48;;;;;;;9.73;1.30;;;;;;;;;;5028000;28;20037;-78
2022/07/26 06:51:13;;;;;;;11.38;1.67;;;;;;;;;;5028402;28;20534;-78
2022/07/26 06:53:38;;;;;;;8.45;1.42;;;;;;;;;;5028385;28;20616;-78
2022/07/26 06:56:04;;;;;;;10.00;1.67;;;;;;;;;;5028307;28;20388;-78
2022/07/26 06:58:30;;;;;;;6.88;1.45;;;;;;;;;;5027825;28;20066;-79
2022/07/26 07:00:56;;;;;;;11.93;1.50;;;;;;;;;;5028095;28;20056;-79
2022/07/26 07:03:21;;;;;;;9.88;1.30;;;;;;;;;;5028291;28;20093;-79
2022/07/26 07:05:47;;;;;;;4.07;1.27;;;;;;;;;;5028002;28;20037;-79
2022/07/26 07:08:13;;;;;;;6.03;1.48;;;;;;;;;;5027666;28;20548;-79
2022/07/26 07:10:38;;;;;;;6.78;1.50;;;;;;;;;;5028144;28;20446;-78
2022/07/26 07:13:04;;;;;;;13.02;4.20;;;;;;;;;;5027929;28;20466;-79
2022/07/26 07:15:29;;;;;;;7.30;1.73;;;;;;;;;;5027934;28;20032;-78
2022/07/26 07:17:55;;;;;;;7.53;1.70;;;;;;;;;;5026306;28;20445;-78
2022/07/26 07:20:20;;;;;;;9.15;1.30;;;;;;;;;;5028093;28;20025;-78
2022/07/26 07:22:46;;;;;;;10.38;1.60;;;;;;;;;;5027774;28;20032;-78
2022/07/26 07:25:12;;;;;;;8.85;1.45;;;;;;;;;;5026869;28;20037;-79
2022/07/26 07:27:37;;;;;;;10.27;1.50;;;;;;;;;;5026909;28;20034;-79
2022/07/26 07:30:04;;;;;;;8.77;1.20;;;;;;;;;;5027726;28;20033;-80
2022/07/26 07:32:30;;;;;;;7.97;1.30;;;;;;;;;;5027691;28;20396;-79
2022/07/26 07:34:55;;;;;;;9.32;1.52;;;;;;;;;;5028048;28;20030;-79
2022/07/26 07:37:21;;;;;;;7.15;1.20;;;;;;;;;;5027713;28;20038;-78
2022/07/26 07:39:47;;;;;;;7.47;1.45;;;;;;;;;;5027647;28;20025;-79
2022/07/26 07:42:12;;;;;;;7.47;1.30;;;;;;;;;;5027798;28;20030;-77
2022/07/26 07:44:38;;;;;;;7.38;1.10;;;;;;;;;;5027908;28;20045;-79
2022/07/26 07:47:03;;;;;;;5.28;1.23;;;;;;;;;;5026500;28;20430;-77
2022/07/26 07:49:29;;;;;;;3.95;1.17;;;;;;;;;;5027044;28;20022;-78
2022/07/26 07:51:54;;;;;;;3.08;1.10;;;;;;;;;;5027352;28;20029;-77
2022/07/26 07:54:19;;;;;;;5.88;1.20;;;;;;;;;;5027551;28;20029;-77
2022/07/26 07:56:45;;;;;;;9.05;1.58;;;;;;;;;;5027292;28;20502;-76
2022/07/26 07:59:10;;;;;;;4.30;1.30;;;;;;;;;;5027375;28;20033;-76
2022/07/26 08:01:36;;;;;;;4.22;1.20;;;;;;;;;;5027180;28;20041;-78
2022/07/26 08:04:01;;;;;;;5.78;1.10;;;;;;;;;;5027250;28;20480;-76
2022/07/26 08:06:27;;;;;;;5.93;1.33;;;;;;;;;;5027172;28;20591;-78
2022/07/26 08:08:52;;;;;;;5.80;1.40;;;;;;;;;;5026976;28;20037;-78
2022/07/26 08:11:17;;;;;;;3.85;1.10;;;;;;;;;;5027255;28;20105;-77
2022/07/26 08:13:43;;;;;;;7.90;1.20;;;;;;;;;;5027196;28;20069;-79
2022/07/26 08:16:08;;;;;;;8.60;1.30;;;;;;;;;;5027167;28;20070;-78
2022/07/26 08:18:34;;;;;;;8.85;1.40;;;;;;;;;;5027307;28;20097;-78
2022/07/26 08:20:59;;;;;;;6.40;1.17;;;;;;;;;;5026925;28;20030;-77
2022/07/26 08:23:25;;;;;;;7.45;1.38;;;;;;;;;;5027061;28;20053;-77
2022/07/26 08:25:51;;;;;;;5.93;1.33;;;;;;;;;;5027056;28;20021;-77
2022/07/26 08:28:16;;;;;;;3.63;1.10;;;;;;;;;;5026761;28;20041;-79
2022/07/26 08:30:42;;;;;;;5.57;1.50;;;;;;;;;;5026967;28;20497;-76
2022/07/26 08:33:07;;;;;;;5.35;1.33;;;;;;;;;;5027009;28;20029;-77
2022/07/26 08:35:33;;;;;;;5.13;1.30;;;;;;;;;;5025822;28;20057;-77
2022/07/26 08:37:58;;;;;;;7.78;1.55;;;;;;;;;;5026780;28;20037;-77
2022/07/26 08:40:24;;;;;;;7.25;1.20;;;;;;;;;;5026827;28;20062;-76
2022/07/26 08:42:51;;;;;;;13.13;1.60;;;;;;;;;;5026911;28;20034;-76
2022/07/26 08:45:27;;;;;;;5.88;1.30;;;;;;;;;;5026618;28;20032;-76
2022/07/26 08:47:54;;;;;;;4.70;1.15;;;;;;;;;;5026680;28;20037;-76
2022/07/26 08:50:20;;;;;;;5.28;1.58;;;;;;;;;;5026743;28;20679;-77
2022/07/26 08:52:45;;;;;;;7.20;1.20;;;;;;;;;;5026641;28;20059;-77
2022/07/26 08:55:15;;;;;;;7.68;1.38;;;;;;;;;;5026752;28;20045;-76
2022/07/26 08:57:41;;;;;;;5.45;1.40;;;;;;;;;;5027935;28;20465;-77
2022/07/26 09:00:24;;;;;;;6.78;1.38;;;;;;;;;;5029787;28;20044;-76
2022/07/26 09:02:51;;;;;;;6.07;1.25;;;;;;;;;;5029941;28;20138;-77
2022/07/26 09:05:19;;;;;;;5.18;1.23;;;;;;;;;;5030158;28;20034;-78
2022/07/26 09:07:44;;;;;;;6.53;1.40;;;;;;;;;;5029889;28;20033;-76
2022/07/26 09:10:13;;;;;;;6.88;1.50;;;;;;;;;;5029843;28;20033;-78
2022/07/26 09:12:41;;;;;;;5.75;1.15;;;;;;;;;;5030076;28;20083;-76
2022/07/26 09:15:16;;;;;;;5.38;1.23;;;;;;;;;;5029836;28;20066;-78
2022/07/26 09:17:46;;;;;;;7.68;1.30;;;;;;;;;;5029813;28;20029;-78
2022/07/26 09:20:15;;;;;;;7.10;1.60;;;;;;;;;;5029668;28;20443;-76
2022/07/26 09:22:56;;;;;;;4.05;1.20;;;;;;;;;;5029709;28;20022;-76
2022/07/26 09:25:22;;;;;;;;;;;;;;;;;;5030422;28;20026;-75
2022/07/26 09:27:48;;;;;;;7.10;1.40;;;;;;;;;;5029722;28;19913;-76
2022/07/26 09:30:14;;;;;;;4.55;1.13;;;;;;;;;;5029647;28;20049;-76
2022/07/26 09:32:51;;;;;;;7.85;1.35;;;;;;;;;;5028248;28;20469;-76
2022/07/26 09:35:17;;;;;;;7.28;1.60;;;;;;;;;;5029770;28;20373;-76
2022/07/26 09:37:43;;;;;;;5.55;1.30;;;;;;;;;;5029440;28;20500;-75
2022/07/26 09:40:14;;;;;;;4.80;1.40;;;;;;;;;;5029483;28;20018;-76
2022/07/26 09:42:57;;;;;;;5.97;1.40;;;;;;;;;;5029525;28;20026;-77
2022/07/26 09:45:25;;;;;;;6.85;1.40;;;;;;;;;;5029611;28;20029;-78
2022/07/26 09:47:51;;;;;;;7.82;1.42;;;;;;;;;;5029201;28;20513;-78
2022/07/26 09:50:20;;;;;;;7.25;1.40;;;;;;;;;;5029031;28;20074;-77
2022/07/26 09:53:06;;;;;;;7.53;1.52;;;;;;;;;;5029214;28;20106;-77
2022/07/26 09:55:33;;;;;;;4.88;1.20;;;;;;;;;;5029315;28;20042;-78
2022/07/26 09:58:02;;;;;;;8.02;1.42;;;;;;;;;;5029354;28;20053;-80
2022/07/26 10:00:31;;;;;;;8.10;1.48;;;;;;;;;;5029163;28;20044;-79
2022/07/26 10:02:57;;;;;;;5.50;1.30;;;;;;;;;;5029125;28;20063;-78
2022/07/26 10:05:23;;;;;;;6.85;1.50;;;;;;;;;;5029169;28;20396;-79
2022/07/26 10:07:49;;;;;;;5.80;1.45;;;;;;;;;;5028856;28;20036;-80
2022/07/26 10:10:26;;;;;;;5.50;1.13;;;;;;;;;;5028033;28;20033;-79
2022/07/26 10:12:53;;;;;;;3.90;1.33;;;;;;;;;;5028832;28;20032;-80
2022/07/26 10:15:36;;;;;;;6.50;1.40;;;;;;;;;;5029067;28;20036;-79
2022/07/26 10:18:04;;;;;;;6.13;1.20;;;;;;;;;;5029038;28;20033;-79
2022/07/26 10:20:42;;;;;;;4.50;1.20;;;;;;;;;;5028794;28;20029;-79
2022/07/26 10:23:31;;;;;;;5.30;1.30;;;;;;;;;;5028365;28;20030;-79
2022/07/26 10:25:56;;;;;;;5.10;1.20;;;;;;;;;;5031066;28;20128;-79
2022/07/26 10:28:25;;;;;;;4.05;1.08;;;;;;;;;;5027122;28;20128;-79
2022/07/26 10:30:51;;;;;;;5.43;1.30;;;;;;;;;;5028694;28;20063;-78
2022/07/26 10:33:18;;;;;;;3.90;1.10;;;;;;;;;;5028808;28;20480;-79
2022/07/26 10:35:44;;;;;;;6.15;1.38;;;;;;;;;;5027327;28;20403;-80
2022/07/26 10:38:20;;;;;;;6.22;1.55;;;;;;;;;;5028510;28;20554;-78
2022/07/26 10:40:59;;;;;;;4.28;1.30;;;;;;;;;;5028517;28;20504;-79
2022/07/26 10:43:26;;;;;;;4.53;1.20;;;;;;;;;;5027321;28;20497;-79
2022/07/26 10:46:28;;;;;;;5.18;1.38;;;;;;;;;;5028532;28;20538;-78
2022/07/26 10:48:57;;;;;;;3.83;1.20;;;;;;;;;;5048342;28;20116;-76
2022/07/26 10:51:29;;;;;;;3.53;1.15;;;;;;;;;;5026896;28;20097;-79
2022/07/26 10:54:15;;;;;;;4.45;1.15;;;;;;;;;;5028231;28;20018;-77
2022/07/26 10:56:40;;;;;;;3.25;1.23;;;;;;;;;;5028423;28;20033;-79
2022/07/26 10:59:06;;;;;;;4.18;1.42;;;;;;;;;;5028331;28;20036;-77
2022/07/26 11:01:37;;;;;;;4.38;1.30;;;;;;;;;;5028030;28;20060;-79
2022/07/26 11:04:04;;;;;;;6.07;1.30;;;;;;;;;;5028176;28;20150;-78
2022/07/26 11:06:30;;;;;;;4.18;1.10;;;;;;;;;;5028018;28;20029;-78
2022/07/26 11:08:55;;;;;;;5.53;1.50;;;;;;;;;;5028471;28;20025;-78
2022/07/26 11:11:32;;;;;;;6.32;1.40;;;;;;;;;;5028059;28;20028;-78
2022/07/26 11:14:12;;;;;;;6.40;1.30;;;;;;;;;;5028848;28;20486;-78
2022/07/26 11:16:43;;;;;;;;;;;;;;;;;;5028737;28;20040;-79
2022/07/26 11:19:28;;;;;;;5.95;1.10;;;;;;;;;;5028239;28;19913;-79
2022/07/26 11:21:56;;;;;;;3.08;1.20;;;;;;;;;;5026600;28;20033;-79
2022/07/26 11:24:21;;;;;;;4.50;1.13;;;;;;;;;;5028081;28;20026;-79
2022/07/26 11:26:46;;;;;;;4.70;1.10;;;;;;;;;;5027944;28;20044;-78
2022/07/26 11:29:13;;;;;;;11.18;1.45;;;;;;;;;;5027734;28;20041;-78
2022/07/26 11:31:44;;;;;;;5.95;1.38;;;;;;;;;;5027695;28;20083;-78
2022/07/26 11:34:18;;;;;;;5.55;1.55;;;;;;;;;;5027745;28;20056;-78
2022/07/26 11:36:45;;;;;;;5.68;1.25;;;;;;;;;;5027673;28;20504;-79
2022/07/26 11:39:13;;;;;;;4.05;1.00;;;;;;;;;;5027825;28;20029;-79
2022/07/26 11:41:41;;;;;;;5.78;1.20;;;;;;;;;;5027611;28;20396;-79
2022/07/26 11:44:13;;;;;;;6.35;1.30;;;;;;;;;;5027689;28;20021;-76
2022/07/26 11:46:39;;;;;;;4.10;1.17;;;;;;;;;;5027728;28;20036;-77
2022/07/26 11:49:22;;;;;;;5.50;1.50;;;;;;;;;;5027423;28;20086;-78
2022/07/26 11:51:54;;;;;;;5.30;1.23;;;;;;;;;;5027135;28;20036;-75
2022/07/26 11:54:21;;;;;;;4.43;1.25;;;;;;;;;;5027299;28;20397;-76
2022/07/26 11:56:55;;;;;;;5.30;1.15;;;;;;;;;;5027310;28;20082;-76
2022/07/26 11:59:23;;;;;;;4.47;1.00;;;;;;;;;;5026290;28;20098;-76
2022/07/26 12:01:49;;;;;;;7.30;1.15;;;;;;;;;;5027050;28;20413;-77
2022/07/26 12:04:22;;;;;;;4.80;1.20;;;;;;;;;;5027543;28;20112;-76
2022/07/26 12:06:48;;;;;;;4.78;1.10;;;;;;;;;;5027178;28;20097;-77
2022/07/26 12:09:39;;;;;;;4.20;1.20;;;;;;;;;;5027093;28;20037;-75
2022/07/26 12:12:07;;;;;;;4.18;1.30;;;;;;;;;;5027104;28;20029;-76
2022/07/26 12:14:37;;;;;;;5.38;1.17;;;;;;;;;;5027129;28;20026;-76
2022/07/26 12:17:16;;;;;;;4.47;1.08;;;;;;;;;;5027257;28;20492;-76
2022/07/26 12:19:45;;;;;;;7.95;1.30;;;;;;;;;;5027037;28;20037;-78
2022/07/26 12:22:10;;;;;;;4.78;1.23;;;;;;;;;;5026988;28;20033;-78
2022/07/26 12:24:46;;;;;;;4.82;1.10;;;;;;;;;;5025913;28;20413;-78
2022/07/26 12:27:23;;;;;;;5.07;1.10;;;;;;;;;;5026875;28;20057;-78
2022/07/26 12:29:55;;;;;;;5.72;1.15;;;;;;;;;;5026821;28;20037;-78
2022/07/26 12:32:29;;;;;;;3.70;1.10;;;;;;;;;;5026278;28;20489;-79
2022/07/26 12:35:08;;;;;;;6.28;1.33;;;;;;;;;;5029230;28;20029;-78
2022/07/26 12:37:56;;;;;;;4.80;1.30;;;;;;;;;;5030357;28;20402;-76
2022/07/26 12:40:26;;;;;;;6.93;1.25;;;;;;;;;;5030000;27;20402;-77
2022/07/26 12:42:59;;;;;;;5.53;1.20;;;;;;;;;;5030271;28;20029;-79
2022/07/26 12:45:28;;;;;;;5.15;1.30;;;;;;;;;;5030196;28;20036;-78
2022/07/26 12:47:55;;;;;;;6.55;1.40;;;;;;;;;;5030077;28;20053;-78
2022/07/26 12:50:24;;;;;;;3.25;1.10;;;;;;;;;;5029986;28;20409;-79
2022/07/26 12:52:50;;;;;;;5.93;1.40;;;;;;;;;;5030091;28;20132;-79
2022/07/26 12:55:20;;;;;;;4.38;0.98;;;;;;;;;;5030372;28;20038;-79
2022/07/26 12:57:46;;;;;;;4.67;1.30;;;;;;;;;;5030077;28;20055;-79
2022/07/26 13:00:13;;;;;;;5.43;1.30;;;;;;;;;;5030181;28;20026;-78
2022/07/26 13:02:41;;;;;;;6.18;1.20;;;;;;;;;;5029997;28;20409;-75
2022/07/26 13:05:07;;;;;;;6.15;1.17;;;;;;;;;;5029831;28;20030;-78
2022/07/26 13:07:32;;;;;;;6.03;1.23;;;;;;;;;;5029913;28;20033;-78
2022/07/26 13:09:58;;;;;;;5.50;1.08;;;;;;;;;;5029939;28;20063;-77
2022/07/26 13:12:23;;;;;;;5.70;1.27;;;;;;;;;;5030032;28;20396;-77
2022/07/26 13:14:49;;;;;;;4.95;1.23;;;;;;;;;;5029960;28;20030;-78
2022/07/26 13:17:15;;;;;;;3.45;0.98;;;;;;;;;;5030008;28;20356;-77
2022/07/26 13:19:40;;;;;;;4.25;1.38;;;;;;;;;;5029802;28;20030;-76
2022/07/26 13:22:07;;;;;;;7.65;1.30;;;;;;;;;;5029339;28;20087;-76
2022/07/26 13:24:33;;;;;;;5.78;1.30;;;;;;;;;;5029589;28;20064;-76
2022/07/26 13:26:59;;;;;;;6.20;1.40;;;;;;;;;;5029810;28;20440;-76
2022/07/26 13:29:25;;;;;;;5.43;1.25;;;;;;;;;;5029842;28;20467;-76
2022/07/26 13:31:50;;;;;;;6.82;1.38;;;;;;;;;;5029559;28;20026;-77
2022/07/26 13:34:17;;;;;;;3.63;1.08;;;;;;;;;;5029621;28;20052;-75
2022/07/26 13:36:43;;;;;;;5.40;1.30;;;;;;;;;;5028241;28;20037;-77
2022/07/26 13:39:09;;;;;;;5.18;1.20;;;;;;;;;;5029424;28;20038;-75
2022/07/26 13:41:34;;;;;;;6.57;1.30;;;;;;;;;;5029108;28;20025;-75
2022/07/26 13:44:00;;;;;;;3.28;1.08;;;;;;;;;;5028528;28;20030;-75
2022/07/26 13:46:28;;;;;;;5.93;1.17;;;;;;;;;;5029420;28;20036;-75
2022/07/26 13:48:55;;;;;;;5.40;1.30;;;;;;;;;;5029422;28;20025;-75
2022/07/26 13:51:21;;;;;;;4.55;1.50;;;;;;;;;;5028969;28;20501;-75
2022/07/26 13:53:46;;;;;;;4.05;1.20;;;;;;;;;;5029303;28;20100;-77
2022/07/26 13:56:12;;;;;;;5.32;1.20;;;;;;;;;;5029203;28;20109;-76
2022/07/26 13:58:37;;;;;;;7.88;1.40;;;;;;;;;;5029152;28;20473;-75
2022/07/26 14:01:02;;;;;;;2.97;1.15;;;;;;;;;;5028869;28;20389;-75
2022/07/26 14:03:28;;;;;;;5.97;1.13;;;;;;;;;;5029140;28;20386;-75
2022/07/26 14:05:54;;;;;;;4.40;1.20;;;;;;;;;;5029150;28;20398;-75
2022/07/26 14:08:19;;;;;;;2.67;0.93;;;;;;;;;;5029015;28;20508;-75
2022/07/26 14:10:45;;;;;;;4.45;1.15;;;;;;;;;;5028914;28;20046;-75
2022/07/26 14:13:11;;;;;;;5.03;1.10;;;;;;;;;;5029084;28;20017;-75
2022/07/26 14:15:36;;;;;;;3.28;1.00;;;;;;;;;;5027701;28;20082;-76
2022/07/26 14:18:02;;;;;;;3.50;1.08;;;;;;;;;;5028919;28;20053;-74
2022/07/26 14:20:28;;;;;;;2.40;1.10;;;;;;;;;;5028746;28;20032;-74
2022/07/26 14:22:55;;;;;;;3.33;1.30;;;;;;;;;;5027407;28;20033;-76
2022/07/26 14:25:25;;;;;;;3.22;1.35;;;;;;;;;;5029112;28;20026;-76
2022/07/26 14:27:52;;;;;;;2.97;1.23;;;;;;;;;;5028789;28;20117;-77
2022/07/26 14:30:19;;;;;;;4.10;1.10;;;;;;;;;;5028747;28;20025;-76
2022/07/26 14:32:45;;;;;;;4.82;1.17;;;;;;;;;;5028274;28;20086;-76
2022/07/26 14:35:12;;;;;;;4.75;1.23;;;;;;;;;;5028617;28;20074;-75
2022/07/26 14:37:38;;;;;;;4.25;1.30;;;;;;;;;;5028523;28;20094;-77
2022/07/26 14:40:05;;;;;;;2.70;0.98;;;;;;;;;;5028657;28;20033;-76
2022/07/26 14:42:31;;;;;;;5.65;1.50;;;;;;;;;;5028630;28;20021;-75
2022/07/26 14:44:57;;;;;;;3.20;1.10;;;;;;;;;;5028421;28;20032;-75
2022/07/26 14:47:22;;;;;;;4.60;1.30;;;;;;;;;;5028440;28;20073;-76